Terminal Aerodrome Forecast
Issued by NWS

Home | Current Version | Previous Version | Graphics & Text | Print | Product List | Glossary On
Versions: 1 2 3 4 5 6 7 8 9 10 11 12 13 14 15 16 17 18 19 20
823
FTUS43 KGRB 202335
TAFAUW
TAF
KAUW 202335Z 2100/2124 19011G18KT P6SM SCT040 BKN120
     FM210600 19006KT 5SM BR SCT007 BKN250
      TEMPO 2107/2111 3SM BR BKN006
     FM211100 18006KT 3SM BR BKN006
     FM211400 22009G16KT P6SM VCSH BKN014
     FM211800 23012G22KT P6SM SCT030 PROB30 2120/2124 2SM TSRA
      BKN018CB=

USA.gov is the U.S. government's official web portal to all federal, state and local government web resources and services.